Time;durP1;ratioP1;P1;durP2;ratioP2;P2;SDS_P1;SDS_P2;PMS_P1;PMS_P2;Temp;Humidity;BMP_temperature;BMP_pressure;BME280_temperature;BME280_humidity;BME280_pressure;Samples;Min_cycle;Max_cycle;Signal;HPM_P1;HPM_P2
2022/10/30 00:00:31;;;;;;;0.32;0.32;;;16.00;99.90;;;;;;5075914;28;20143;-80
2022/10/30 00:02:57;;;;;;;0.00;0.00;;;15.90;99.90;;;;;;5079770;28;20449;-80
2022/10/30 00:05:22;;;;;;;0.30;0.03;;;16.00;99.90;;;;;;5096861;28;20044;-81
2022/10/30 00:07:49;;;;;;;0.10;0.10;;;15.90;99.90;;;;;;5096682;28;20066;-81
2022/10/30 00:10:16;;;;;;;0.00;0.00;;;15.80;99.90;;;;;;5079855;28;20506;-80
2022/10/30 00:12:43;;;;;;;0.13;0.10;;;15.80;99.90;;;;;;5079719;28;20039;-80
2022/10/30 00:15:09;;;;;;;0.00;0.00;;;15.70;99.90;;;;;;5096503;28;20048;-80
2022/10/30 00:17:35;;;;;;;0.03;0.03;;;15.70;99.90;;;;;;5079654;28;20056;-80
2022/10/30 00:20:00;;;;;;;0.47;0.20;;;15.70;99.90;;;;;;5096557;28;20036;-81
2022/10/30 00:22:26;;;;;;;0.17;0.10;;;15.70;99.90;;;;;;5079529;28;20078;-81
2022/10/30 00:24:52;;;;;;;0.00;0.00;;;15.60;99.90;;;;;;5079580;28;20472;-81
2022/10/30 00:27:17;;;;;;;0.10;0.10;;;15.60;99.90;;;;;;5096148;28;20047;-81
2022/10/30 00:29:43;;;;;;;0.05;0.00;;;15.60;99.90;;;;;;5096158;28;20079;-81
2022/10/30 00:32:09;;;;;;;0.30;0.30;;;15.50;99.90;;;;;;5096225;28;20040;-81
2022/10/30 00:34:35;;;;;;;0.10;0.10;;;15.40;99.90;;;;;;5079505;28;20039;-81
2022/10/30 00:37:00;;;;;;;0.35;0.35;;;15.50;99.90;;;;;;5079241;28;20465;-81
2022/10/30 00:39:26;;;;;;;0.10;0.10;;;15.40;99.90;;;;;;5096107;28;20052;-81
2022/10/30 00:41:52;;;;;;;2.30;0.50;;;15.40;99.90;;;;;;5095731;28;20089;-81
2022/10/30 00:44:49;;;;;;;0.75;0.30;;;15.30;99.90;;;;;;5077732;28;20082;-81
2022/10/30 00:47:18;;;;;;;0.00;0.00;;;15.30;99.90;;;;;;5095436;28;20046;-81
2022/10/30 00:49:56;;;;;;;0.00;0.00;;;15.30;99.90;;;;;;5094381;28;20043;-81
2022/10/30 00:52:24;;;;;;;1.65;0.68;;;15.20;99.90;;;;;;5077843;28;20411;-81
2022/10/30 00:54:51;;;;;;;0.00;0.00;;;15.20;99.90;;;;;;5094552;28;20094;-81
2022/10/30 00:57:18;;;;;;;0.10;0.10;;;15.30;99.90;;;;;;5077715;28;20051;-81
2022/10/30 00:59:44;;;;;;;0.20;0.20;;;15.20;99.90;;;;;;5095101;28;20055;-81
2022/10/30 01:02:10;;;;;;;0.00;0.00;;;15.10;99.90;;;;;;5094625;28;20040;-81
2022/10/30 01:04:37;;;;;;;0.00;0.00;;;15.20;99.90;;;;;;5094396;28;20051;-81
2022/10/30 01:07:11;;;;;;;0.00;0.00;;;15.20;99.90;;;;;;5077598;28;20048;-81
2022/10/30 01:09:38;;;;;;;0.22;0.10;;;15.10;99.90;;;;;;5094506;28;20036;-81
2022/10/30 01:12:04;;;;;;;0.20;0.10;;;15.10;99.90;;;;;;5094240;28;20380;-81
2022/10/30 01:14:30;;;;;;;0.10;0.10;;;15.10;99.90;;;;;;5094684;28;20051;-81
2022/10/30 01:17:34;;;;;;;0.00;0.00;;;15.10;99.90;;;;;;5094392;28;20050;-81
2022/10/30 01:20:26;;;;;;;0.03;0.03;;;15.10;99.90;;;;;;5037201;28;20068;-81
2022/10/30 01:23:10;;;;;;;0.00;0.00;;;15.10;99.90;;;;;;5020364;28;20045;-81
2022/10/30 01:26:05;;;;;;;0.22;0.20;;;15.10;99.90;;;;;;5019886;28;20135;-81
2022/10/30 01:29:07;;;;;;;0.00;0.00;;;15.10;99.90;;;;;;5036233;28;20451;-81
2022/10/30 01:32:24;;;;;;;0.52;0.47;;;15.00;99.90;;;;;;5036776;28;20175;-81
2022/10/30 01:34:59;;;;;;;0.20;0.17;;;15.10;99.90;;;;;;5036700;28;20045;-81
2022/10/30 01:37:32;;;;;;;;;;;15.10;99.90;;;;;;5020112;28;20056;-81
2022/10/30 01:40:04;;;;;;;0.20;0.20;;;15.10;99.90;;;;;;5020122;28;19967;-81
2022/10/30 01:42:51;;;;;;;0.25;0.25;;;15.00;99.90;;;;;;4997863;28;1102352;-81
2022/10/30 01:45:36;;;;;;;0.13;0.08;;;15.00;99.90;;;;;;5020603;28;20091;-81
2022/10/30 01:48:14;;;;;;;0.13;0.13;;;15.00;99.90;;;;;;5020616;28;20055;-81
2022/10/30 01:51:02;;;;;;;1.25;0.35;;;15.10;99.90;;;;;;5037162;28;20061;-81
2022/10/30 01:53:53;;;;;;;1.75;0.22;;;15.10;99.90;;;;;;5037294;28;20045;-81
2022/10/30 01:56:18;;;;;;;0.30;0.28;;;15.10;99.90;;;;;;5009670;28;20065;-81
2022/10/30 01:59:04;;;;;;;0.80;0.20;;;15.10;99.90;;;;;;5020489;28;20057;-81
2022/10/30 02:01:34;;;;;;;0.00;0.00;;;15.10;99.90;;;;;;5021063;28;20143;-81
2022/10/30 02:04:01;;;;;;;2.92;0.68;;;15.10;99.90;;;;;;5037561;28;20045;-81
2022/10/30 02:06:26;;;;;;;0.57;0.40;;;15.10;99.90;;;;;;5020193;28;20095;-81
2022/10/30 02:08:55;;;;;;;0.00;0.00;;;15.00;99.90;;;;;;5036768;28;20473;-81
2022/10/30 02:11:22;;;;;;;0.10;0.10;;;15.00;99.90;;;;;;5020484;28;20061;-81
2022/10/30 02:13:51;;;;;;;6.40;0.25;;;15.00;99.90;;;;;;5036431;28;20057;-80
2022/10/30 02:16:17;;;;;;;0.63;0.30;;;15.00;99.90;;;;;;5036664;28;20099;-80
2022/10/30 02:18:42;;;;;;;0.20;0.20;;;15.00;99.90;;;;;;5036771;28;20087;-81
2022/10/30 02:21:08;;;;;;;0.00;0.00;;;15.00;99.90;;;;;;5019887;28;20068;-81
2022/10/30 02:23:34;;;;;;;0.28;0.28;;;15.00;99.90;;;;;;5019332;28;20048;-81
2022/10/30 02:26:00;;;;;;;0.30;0.00;;;15.10;99.90;;;;;;5036109;28;20084;-81
2022/10/30 02:28:25;;;;;;;0.08;0.05;;;15.00;99.90;;;;;;5036192;28;20477;-81
2022/10/30 02:30:51;;;;;;;0.08;0.08;;;15.00;99.90;;;;;;5036258;28;20064;-80
2022/10/30 02:33:16;;;;;;;0.08;0.08;;;15.10;99.90;;;;;;5056678;28;20060;-80
2022/10/30 02:35:42;;;;;;;0.00;0.00;;;15.10;99.90;;;;;;5093737;28;20044;-80
2022/10/30 02:38:08;;;;;;;0.17;0.10;;;15.10;99.90;;;;;;5094063;28;20062;-80
2022/10/30 02:40:33;;;;;;;0.82;0.15;;;15.10;99.90;;;;;;5094035;28;20044;-80
2022/10/30 02:42:59;;;;;;;0.03;0.00;;;15.10;99.90;;;;;;5076448;28;20063;-80
2022/10/30 02:45:25;;;;;;;0.00;0.00;;;15.10;99.90;;;;;;5076882;28;20048;-81
2022/10/30 02:47:51;;;;;;;0.10;0.10;;;15.20;99.90;;;;;;5093626;28;20051;-80
2022/10/30 02:50:16;;;;;;;0.13;0.13;;;15.20;99.90;;;;;;5076866;28;20108;-80
2022/10/30 02:52:42;;;;;;;0.00;0.00;;;15.20;99.90;;;;;;5093796;28;20036;-80
2022/10/30 02:55:08;;;;;;;0.63;0.20;;;15.20;99.90;;;;;;5076595;28;20138;-80
2022/10/30 02:57:33;;;;;;;0.10;0.10;;;15.20;99.90;;;;;;5093446;28;20040;-80
2022/10/30 03:00:00;;;;;;;0.35;0.35;;;15.10;99.90;;;;;;5093915;28;20566;-80
2022/10/30 03:02:25;;;;;;;4.47;1.40;;;15.10;99.90;;;;;;5093459;28;20059;-81
2022/10/30 03:04:51;;;;;;;0.20;0.20;;;15.00;99.90;;;;;;5076747;28;20047;-81
2022/10/30 03:07:17;;;;;;;1.75;0.10;;;15.10;99.90;;;;;;5093810;28;20090;-81
2022/10/30 03:09:42;;;;;;;0.98;0.32;;;15.00;99.90;;;;;;5093185;28;20036;-81
2022/10/30 03:12:08;;;;;;;0.22;0.10;;;15.00;99.90;;;;;;5093030;28;20168;-81
2022/10/30 03:14:34;;;;;;;1.20;0.15;;;14.90;99.90;;;;;;5093415;28;20044;-81
2022/10/30 03:16:59;;;;;;;0.20;0.15;;;14.80;99.90;;;;;;5076585;28;20059;-81
2022/10/30 03:19:25;;;;;;;0.35;0.30;;;14.80;99.90;;;;;;5076716;28;20036;-81
2022/10/30 03:21:52;;;;;;;0.15;0.00;;;14.80;99.90;;;;;;5093512;28;20373;-81
2022/10/30 03:24:18;;;;;;;0.25;0.10;;;14.80;99.90;;;;;;5093510;28;20055;-81
2022/10/30 03:26:43;;;;;;;0.00;0.00;;;14.80;99.90;;;;;;5076383;28;20392;-81
2022/10/30 03:29:09;;;;;;;0.20;0.10;;;14.70;99.90;;;;;;5093255;28;20411;-81
2022/10/30 03:31:35;;;;;;;2.60;0.45;;;14.70;99.90;;;;;;5093359;28;20097;-81
2022/10/30 03:34:01;;;;;;;0.00;0.00;;;14.60;99.90;;;;;;5076575;28;20124;-81
2022/10/30 03:36:26;;;;;;;0.00;0.00;;;14.60;99.90;;;;;;5094676;28;20044;-81
2022/10/30 03:38:52;;;;;;;0.45;0.20;;;14.50;99.90;;;;;;5080595;28;20056;-81
2022/10/30 03:41:17;;;;;;;0.25;0.20;;;14.50;99.90;;;;;;5080590;28;20043;-81
2022/10/30 03:43:44;;;;;;;0.50;0.43;;;14.50;99.90;;;;;;5097206;28;20063;-81
2022/10/30 03:46:10;;;;;;;0.00;0.00;;;14.50;99.90;;;;;;5080798;28;20060;-81
2022/10/30 03:48:36;;;;;;;0.00;0.00;;;14.40;99.90;;;;;;5097155;28;20051;-81
2022/10/30 03:51:01;;;;;;;0.05;0.05;;;14.40;99.90;;;;;;5097424;28;20052;-81
2022/10/30 03:53:28;;;;;;;0.13;0.00;;;14.40;99.90;;;;;;5080298;28;20073;-81
2022/10/30 03:55:58;;;;;;;4.57;0.50;;;14.40;99.90;;;;;;5079937;28;20062;-81
2022/10/30 03:58:25;;;;;;;0.00;0.00;;;14.40;99.90;;;;;;5097119;28;20048;-80
2022/10/30 04:00:50;;;;;;;0.03;0.03;;;14.30;99.90;;;;;;5080247;28;20507;-80
2022/10/30 04:03:16;;;;;;;0.00;0.00;;;14.20;99.90;;;;;;5097018;28;20044;-80
2022/10/30 04:05:42;;;;;;;0.55;0.30;;;14.20;99.90;;;;;;5096815;28;20368;-81
2022/10/30 04:08:11;;;;;;;0.00;0.00;;;14.10;99.90;;;;;;5097128;28;20543;-81
2022/10/30 04:10:40;;;;;;;1.42;0.43;;;14.20;99.90;;;;;;5096871;28;20059;-80
2022/10/30 04:13:07;;;;;;;6.15;1.42;;;14.10;99.90;;;;;;5079753;28;20044;-80
2022/10/30 04:15:33;;;;;;;0.00;0.00;;;14.10;99.90;;;;;;5080316;28;20142;-80
2022/10/30 04:17:59;;;;;;;0.00;0.00;;;14.10;99.90;;;;;;5079851;28;20105;-80
2022/10/30 04:20:26;;;;;;;0.00;0.00;;;14.10;99.90;;;;;;5080069;28;20036;-80
2022/10/30 04:23:01;;;;;;;0.03;0.00;;;14.10;99.90;;;;;;5079944;28;20090;-80
2022/10/30 04:25:28;;;;;;;0.00;0.00;;;14.00;99.90;;;;;;5097270;28;20048;-80
2022/10/30 04:27:54;;;;;;;0.13;0.13;;;14.00;99.90;;;;;;5096335;28;20384;-81
2022/10/30 04:30:20;;;;;;;0.00;0.00;;;14.00;99.90;;;;;;5096296;28;20043;-80
2022/10/30 04:32:47;;;;;;;0.00;0.00;;;14.00;99.90;;;;;;5096273;28;20044;-80
2022/10/30 04:35:14;;;;;;;0.00;0.00;;;13.90;99.90;;;;;;5096131;28;20048;-81
2022/10/30 04:37:40;;;;;;;0.00;0.00;;;13.90;99.90;;;;;;5096283;28;20074;-79
2022/10/30 04:40:06;;;;;;;0.45;0.20;;;14.00;99.90;;;;;;5079357;28;20063;-81
2022/10/30 04:42:33;;;;;;;0.00;0.00;;;13.90;99.90;;;;;;5078698;28;20491;-80
2022/10/30 04:45:01;;;;;;;0.32;0.17;;;13.90;99.90;;;;;;5078897;28;20056;-80
2022/10/30 04:47:27;;;;;;;0.20;0.20;;;13.90;99.90;;;;;;5078848;28;20454;-80
2022/10/30 04:49:53;;;;;;;1.00;0.52;;;13.90;99.90;;;;;;5095715;28;20043;-80
2022/10/30 04:52:19;;;;;;;0.00;0.00;;;13.90;99.90;;;;;;5096229;28;20044;-80
2022/10/30 04:54:45;;;;;;;1.50;0.45;;;13.90;99.90;;;;;;5095942;28;20043;-80
2022/10/30 04:57:10;;;;;;;0.00;0.00;;;13.90;99.90;;;;;;5079136;28;20409;-80
2022/10/30 04:59:36;;;;;;;0.10;0.10;;;13.90;99.90;;;;;;5079028;28;20068;-80
2022/10/30 05:02:01;;;;;;;2.08;0.35;;;13.80;99.90;;;;;;5079274;28;20138;-80
2022/10/30 05:04:27;;;;;;;0.00;0.00;;;13.80;99.90;;;;;;5095792;28;20055;-80
2022/10/30 05:06:53;;;;;;;0.98;0.32;;;13.80;99.90;;;;;;5078915;28;20051;-81
2022/10/30 05:09:18;;;;;;;0.35;0.35;;;13.80;99.90;;;;;;5095764;28;20044;-81
2022/10/30 05:11:44;;;;;;;0.10;0.10;;;13.80;99.90;;;;;;5078842;28;20047;-81
2022/10/30 05:14:10;;;;;;;0.38;0.17;;;13.70;99.90;;;;;;5079024;28;20055;-81
2022/10/30 05:16:35;;;;;;;0.65;0.30;;;13.70;99.90;;;;;;5095565;28;20047;-81
2022/10/30 05:19:01;;;;;;;0.00;0.00;;;13.70;99.90;;;;;;5078607;28;20052;-81
2022/10/30 05:21:27;;;;;;;2.60;0.73;;;13.70;99.90;;;;;;5078289;28;20129;-81
2022/10/30 05:23:52;;;;;;;0.30;0.10;;;13.60;99.90;;;;;;5078371;28;20083;-81
2022/10/30 05:26:18;;;;;;;0.00;0.00;;;13.60;99.90;;;;;;5095086;28;20044;-81
2022/10/30 05:28:44;;;;;;;0.00;0.00;;;13.60;99.90;;;;;;5095000;28;20407;-81
2022/10/30 05:31:10;;;;;;;0.00;0.00;;;13.60;99.90;;;;;;5094915;28;20044;-81
2022/10/30 05:33:35;;;;;;;0.30;0.00;;;13.60;99.90;;;;;;5078251;28;20083;-81
2022/10/30 05:36:01;;;;;;;0.10;0.10;;;13.60;99.90;;;;;;5078059;28;20048;-81
2022/10/30 05:38:26;;;;;;;0.22;0.20;;;13.50;99.90;;;;;;5095627;28;20376;-81
2022/10/30 05:40:52;;;;;;;0.00;0.00;;;13.50;99.90;;;;;;5095026;28;20395;-81
2022/10/30 05:43:18;;;;;;;0.30;0.30;;;13.50;99.90;;;;;;5094762;28;20048;-81
2022/10/30 05:45:43;;;;;;;0.20;0.20;;;13.50;99.90;;;;;;5094854;28;20130;-81
2022/10/30 05:48:09;;;;;;;0.10;0.10;;;13.40;99.90;;;;;;5094798;28;20044;-81
2022/10/30 05:50:35;;;;;;;0.00;0.00;;;13.40;99.90;;;;;;5094951;28;20051;-81
2022/10/30 05:53:03;;;;;;;0.00;0.00;;;13.50;99.90;;;;;;5094937;28;20177;-81
2022/10/30 05:55:29;;;;;;;1.10;0.73;;;13.50;99.90;;;;;;5077818;28;20043;-81
2022/10/30 05:58:00;;;;;;;0.00;0.00;;;13.40;99.90;;;;;;5094971;28;20625;-81
2022/10/30 06:00:28;;;;;;;0.25;0.25;;;13.50;99.90;;;;;;5093709;28;20492;-81
2022/10/30 06:03:06;;;;;;;4.03;0.75;;;13.50;99.90;;;;;;5094204;28;20502;-81
2022/10/30 06:05:34;;;;;;;0.03;0.03;;;13.50;99.90;;;;;;5077432;28;20127;-81
2022/10/30 06:08:00;;;;;;;0.10;0.10;;;13.40;99.90;;;;;;5094183;28;20048;-81
2022/10/30 06:10:26;;;;;;;0.03;0.03;;;13.50;99.90;;;;;;5094262;28;20102;-81
2022/10/30 06:13:04;;;;;;;0.15;0.15;;;13.40;99.90;;;;;;5077957;28;20128;-81
2022/10/30 06:15:29;;;;;;;0.00;0.00;;;13.50;99.90;;;;;;5076885;28;20051;-81
2022/10/30 06:17:55;;;;;;;0.30;0.00;;;13.50;99.90;;;;;;5094292;28;20044;-81
2022/10/30 06:20:24;;;;;;;1.85;0.65;;;13.50;99.90;;;;;;5077312;28;20479;-81
2022/10/30 06:23:09;;;;;;;0.38;0.35;;;13.50;99.90;;;;;;5077842;28;20060;-81
2022/10/30 06:25:35;;;;;;;1.35;0.30;;;13.50;99.90;;;;;;5094628;28;20044;-81
2022/10/30 06:28:01;;;;;;;0.20;0.20;;;13.50;99.90;;;;;;5093550;28;20525;-81
2022/10/30 06:30:28;;;;;;;0.00;0.00;;;13.50;99.90;;;;;;5077197;28;20097;-82
2022/10/30 06:32:57;;;;;;;0.10;0.10;;;13.50;99.90;;;;;;5093592;28;20510;-83
2022/10/30 06:35:23;;;;;;;0.13;0.13;;;13.60;99.90;;;;;;5077088;28;20056;-82
2022/10/30 06:37:50;;;;;;;0.22;0.22;;;13.60;99.90;;;;;;5094046;28;20044;-82
2022/10/30 06:40:16;;;;;;;1.40;0.30;;;13.60;99.90;;;;;;5093448;28;20059;-81
2022/10/30 06:42:46;;;;;;;0.88;0.55;;;13.60;99.90;;;;;;5093342;28;20060;-81
2022/10/30 06:45:13;;;;;;;0.10;0.10;;;13.60;99.90;;;;;;5076992;28;20085;-81
2022/10/30 06:47:39;;;;;;;0.00;0.00;;;13.60;99.90;;;;;;5076659;28;20118;-81
2022/10/30 06:50:07;;;;;;;1.02;0.20;;;13.70;99.90;;;;;;5077283;28;20052;-81
2022/10/30 06:52:33;;;;;;;0.00;0.00;;;13.70;99.90;;;;;;5077015;28;20052;-81
2022/10/30 06:54:58;;;;;;;0.13;0.13;;;13.70;99.90;;;;;;5093218;28;20200;-80
2022/10/30 06:57:24;;;;;;;0.17;0.17;;;13.80;99.90;;;;;;5094188;28;20043;-80
2022/10/30 06:59:49;;;;;;;0.20;0.20;;;13.80;99.90;;;;;;5093860;28;20093;-81
2022/10/30 07:02:15;;;;;;;0.00;0.00;;;13.80;99.90;;;;;;5093875;28;20051;-81
2022/10/30 07:04:41;;;;;;;0.52;0.40;;;13.80;99.90;;;;;;5076799;28;20441;-80
2022/10/30 07:07:06;;;;;;;0.30;0.30;;;13.80;99.90;;;;;;5093466;28;20437;-81
2022/10/30 07:09:32;;;;;;;0.10;0.10;;;13.80;99.90;;;;;;5093077;28;20131;-80
2022/10/30 07:11:58;;;;;;;0.20;0.20;;;13.90;99.90;;;;;;5093355;28;20047;-81
2022/10/30 07:14:23;;;;;;;0.08;0.08;;;13.90;99.90;;;;;;5093036;28;20044;-81
2022/10/30 07:16:49;;;;;;;0.20;0.10;;;13.90;99.90;;;;;;5076858;28;20206;-81
2022/10/30 07:19:15;;;;;;;0.30;0.22;;;14.00;99.90;;;;;;5093150;28;20475;-81
2022/10/30 07:21:40;;;;;;;3.90;1.08;;;14.00;99.90;;;;;;5093317;28;20044;-80
2022/10/30 07:24:06;;;;;;;0.05;0.05;;;14.00;99.90;;;;;;5093094;28;20040;-80
2022/10/30 07:26:36;;;;;;;0.30;0.30;;;14.00;99.90;;;;;;5093584;28;20044;-80
2022/10/30 07:29:03;;;;;;;0.10;0.10;;;14.10;99.90;;;;;;5076917;28;20048;-81
2022/10/30 07:31:29;;;;;;;0.30;0.30;;;14.20;99.90;;;;;;5092778;28;20060;-80
2022/10/30 07:33:54;;;;;;;0.00;0.00;;;14.20;99.90;;;;;;5093411;28;20055;-80
2022/10/30 07:36:20;;;;;;;4.78;0.40;;;14.20;99.90;;;;;;5076723;28;20073;-80
2022/10/30 07:38:50;;;;;;;0.10;0.10;;;14.30;99.90;;;;;;5076542;28;20044;-81
2022/10/30 07:41:19;;;;;;;0.38;0.38;;;14.30;99.90;;;;;;5093318;28;20052;-81
2022/10/30 07:43:46;;;;;;;1.67;0.30;;;14.30;99.90;;;;;;5075143;28;20052;-81
2022/10/30 07:46:13;;;;;;;0.25;0.20;;;14.40;99.90;;;;;;5076547;28;20142;-81
2022/10/30 07:48:39;;;;;;;0.60;0.55;;;14.50;99.90;;;;;;5092839;28;20127;-81
2022/10/30 07:51:05;;;;;;;0.30;0.30;;;14.60;99.90;;;;;;5076341;28;20480;-81
2022/10/30 07:53:31;;;;;;;0.90;0.75;;;14.70;99.90;;;;;;5092330;28;20105;-81
2022/10/30 07:55:57;;;;;;;0.50;0.40;;;14.70;99.90;;;;;;5092893;28;20044;-81
2022/10/30 07:58:22;;;;;;;0.20;0.20;;;14.70;99.90;;;;;;5093044;28;20040;-81
2022/10/30 08:00:48;;;;;;;0.25;0.22;;;14.90;99.90;;;;;;5092954;28;20040;-81
2022/10/30 08:03:14;;;;;;;0.43;0.43;;;14.90;99.90;;;;;;5093165;28;20388;-81
2022/10/30 08:05:40;;;;;;;0.00;0.00;;;15.10;99.90;;;;;;5076396;28;20055;-81
2022/10/30 08:08:07;;;;;;;2.05;0.55;;;15.30;99.90;;;;;;5075777;28;20048;-81
2022/10/30 08:10:33;;;;;;;3.55;0.70;;;15.50;99.90;;;;;;5092959;28;20048;-81
2022/10/30 08:12:58;;;;;;;1.10;0.77;;;15.50;99.90;;;;;;5075899;28;20484;-81
2022/10/30 08:15:24;;;;;;;0.00;0.00;;;15.60;99.90;;;;;;5092961;28;20042;-81
2022/10/30 08:17:50;;;;;;;0.17;0.17;;;15.80;99.90;;;;;;5076117;28;20060;-81
2022/10/30 08:20:18;;;;;;;1.38;0.45;;;16.00;99.90;;;;;;5092832;28;20037;-81
2022/10/30 08:22:49;;;;;;;0.10;0.10;;;16.30;99.90;;;;;;5094580;28;20044;-81
2022/10/30 08:25:17;;;;;;;0.30;0.20;;;16.80;99.90;;;;;;5097212;28;20048;-81
2022/10/30 08:28:01;;;;;;;3.22;0.82;;;17.40;99.90;;;;;;5079590;28;20052;-81
2022/10/30 08:30:29;;;;;;;0.00;0.00;;;17.80;99.90;;;;;;5096527;28;20145;-81
2022/10/30 08:33:03;;;;;;;0.00;0.00;;;18.30;99.90;;;;;;5079742;28;20099;-81
2022/10/30 08:35:29;;;;;;;0.08;0.08;;;18.90;99.90;;;;;;5079739;28;20103;-81
2022/10/30 08:37:56;;;;;;;0.00;0.00;;;19.60;99.90;;;;;;5079806;28;20125;-81
2022/10/30 08:40:22;;;;;;;0.00;0.00;;;20.40;99.90;;;;;;5096139;28;20059;-81
2022/10/30 08:42:52;;;;;;;0.10;0.10;;;21.00;99.90;;;;;;5079063;28;20078;-81
2022/10/30 08:45:19;;;;;;;0.00;0.00;;;21.40;99.90;;;;;;5079090;28;20048;-81
2022/10/30 08:47:45;;;;;;;0.20;0.10;;;21.80;99.90;;;;;;5079034;28;20503;-81
2022/10/30 08:50:10;;;;;;;0.20;0.00;;;22.00;99.90;;;;;;5079272;28;20067;-82
2022/10/30 08:52:36;;;;;;;0.28;0.28;;;22.30;99.90;;;;;;5095953;28;20056;-81
2022/10/30 08:55:02;;;;;;;0.00;0.00;;;22.50;99.90;;;;;;5079522;28;20101;-82
2022/10/30 08:57:27;;;;;;;0.10;0.10;;;22.40;99.90;;;;;;5078688;28;20059;-81
2022/10/30 08:59:53;;;;;;;0.40;0.20;;;22.10;99.90;;;;;;5095759;28;20048;-81
2022/10/30 09:02:18;;;;;;;1.70;0.65;;;22.00;99.90;;;;;;5095691;28;20110;-81
2022/10/30 09:04:44;;;;;;;0.55;0.47;;;22.10;99.90;;;;;;5095990;28;20524;-81
2022/10/30 09:07:10;;;;;;;0.30;0.30;;;22.20;99.90;;;;;;5095831;28;20088;-81
2022/10/30 09:09:35;;;;;;;0.10;0.10;;;22.40;99.90;;;;;;5078502;28;20056;-81
2022/10/30 09:12:01;;;;;;;0.00;0.00;;;22.60;99.90;;;;;;5078930;28;20152;-82
2022/10/30 09:14:27;;;;;;;0.70;0.38;;;22.70;99.90;;;;;;5094918;28;20059;-81
2022/10/30 09:16:53;;;;;;;0.20;0.20;;;22.70;99.90;;;;;;5095557;28;20032;-81
2022/10/30 09:19:19;;;;;;;1.17;0.40;;;22.70;99.90;;;;;;5078622;28;20074;-81
2022/10/30 09:21:45;;;;;;;1.75;0.70;;;22.70;99.90;;;;;;5078569;28;20475;-82
2022/10/30 09:24:10;;;;;;;0.00;0.00;;;22.70;99.90;;;;;;5078498;28;20051;-81
2022/10/30 09:26:36;;;;;;;0.45;0.40;;;22.90;99.90;;;;;;5078377;28;20474;-81
2022/10/30 09:29:01;;;;;;;0.52;0.10;;;23.20;99.90;;;;;;5078245;28;20094;-81
2022/10/30 09:31:27;;;;;;;0.00;0.00;;;23.40;99.90;;;;;;5094852;28;20044;-81
2022/10/30 09:33:53;;;;;;;13.15;1.08;;;23.40;99.90;;;;;;5093881;28;20047;-81
2022/10/30 09:36:18;;;;;;;0.10;0.10;;;23.50;99.90;;;;;;5095361;28;20048;-82
2022/10/30 09:38:44;;;;;;;0.10;0.00;;;23.50;99.90;;;;;;5094588;28;20592;-81
2022/10/30 09:41:16;;;;;;;0.17;0.17;;;23.40;99.90;;;;;;5094635;28;20044;-80
2022/10/30 09:44:15;;;;;;;0.17;0.17;;;23.40;99.90;;;;;;5094485;28;20055;-80
2022/10/30 09:47:02;;;;;;;0.00;0.00;;;23.70;99.90;;;;;;5094630;28;20052;-81
2022/10/30 09:49:52;;;;;;;3.30;0.45;;;24.00;99.90;;;;;;5077645;28;20044;-81
2022/10/30 09:52:26;;;;;;;2.03;0.43;;;24.40;99.90;;;;;;5077729;28;20555;-82
2022/10/30 09:55:15;;;;;;;0.93;0.57;;;24.50;99.90;;;;;;5077771;28;20047;-82
2022/10/30 09:58:08;;;;;;;0.20;0.20;;;24.70;99.90;;;;;;5094851;28;20043;-81
2022/10/30 10:00:42;;;;;;;0.00;0.00;;;24.60;99.90;;;;;;5077517;28;20051;-81
2022/10/30 10:03:20;;;;;;;0.30;0.30;;;24.60;99.90;;;;;;5094649;28;20040;-81
2022/10/30 10:05:56;;;;;;;0.57;0.45;;;24.50;99.90;;;;;;5094559;28;20052;-81
2022/10/30 10:08:31;;;;;;;0.00;0.00;;;24.30;99.90;;;;;;5094164;28;20036;-81
2022/10/30 10:11:01;;;;;;;0.00;0.00;;;24.10;99.90;;;;;;5094192;28;20052;-81
2022/10/30 10:13:40;;;;;;;4.03;0.40;;;24.00;99.90;;;;;;5077241;28;20044;-81
2022/10/30 10:16:22;;;;;;;0.20;0.20;;;23.80;99.90;;;;;;5093752;28;20052;-81
2022/10/30 10:18:57;;;;;;;0.25;0.25;;;23.70;99.90;;;;;;5094349;28;20083;-81
2022/10/30 10:21:24;;;;;;;0.57;0.30;;;23.70;99.90;;;;;;5094366;28;20044;-81
2022/10/30 10:23:53;;;;;;;0.47;0.40;;;23.80;99.90;;;;;;5093619;28;20047;-81
2022/10/30 10:26:26;;;;;;;0.38;0.38;;;24.00;99.90;;;;;;5094237;28;20042;-81
2022/10/30 10:28:59;;;;;;;0.22;0.20;;;24.20;99.90;;;;;;5076850;28;20052;-81
2022/10/30 10:31:49;;;;;;;0.25;0.25;;;24.30;99.90;;;;;;5077268;28;20056;-82
2022/10/30 10:34:26;;;;;;;1.17;0.10;;;24.50;99.90;;;;;;5094111;28;20105;-82
2022/10/30 10:37:20;;;;;;;0.08;0.08;;;24.60;99.90;;;;;;5093759;28;20052;-81
2022/10/30 10:40:06;;;;;;;0.00;0.00;;;24.70;99.90;;;;;;5093909;28;20040;-81
2022/10/30 10:42:41;;;;;;;0.25;0.25;;;24.70;99.90;;;;;;5077029;28;20066;-81
2022/10/30 10:45:36;;;;;;;0.22;0.22;;;24.70;99.90;;;;;;5093014;28;20398;-82
2022/10/30 10:48:40;;;;;;;3.00;0.40;;;24.70;99.90;;;;;;5093340;28;20046;-81
2022/10/30 10:51:28;;;;;;;0.20;0.20;;;24.40;99.90;;;;;;5076664;28;20147;-82
2022/10/30 10:53:56;;;;;;;0.00;0.00;;;24.20;99.90;;;;;;5093733;28;20293;-81
2022/10/30 10:56:33;;;;;;;2.60;0.57;;;24.00;99.90;;;;;;5077464;28;20121;-82
2022/10/30 10:59:11;;;;;;;4.28;0.75;;;23.90;99.90;;;;;;5093224;28;20415;-82
2022/10/30 11:01:44;;;;;;;0.47;0.15;;;23.90;99.90;;;;;;5093638;28;20096;-81
2022/10/30 11:04:30;;;;;;;0.93;0.65;;;23.80;99.90;;;;;;5076719;28;20094;-81
2022/10/30 11:06:57;;;;;;;0.00;0.00;;;23.60;99.90;;;;;;5076873;28;20079;-81
2022/10/30 11:09:26;;;;;;;1.13;0.20;;;23.20;99.90;;;;;;5076357;28;20044;-81
2022/10/30 11:11:54;;;;;;;0.47;0.47;;;23.00;99.90;;;;;;5076363;28;20044;-81
2022/10/30 11:14:26;;;;;;;0.30;0.15;;;22.80;99.90;;;;;;5093292;28;20503;-81
2022/10/30 11:17:12;;;;;;;0.10;0.10;;;22.60;99.90;;;;;;5076364;28;20048;-81
2022/10/30 11:19:37;;;;;;;1.08;0.50;;;22.30;99.90;;;;;;5093134;28;20112;-81
2022/10/30 11:22:28;;;;;;;0.10;0.10;;;22.20;99.90;;;;;;5076596;28;20055;-81
2022/10/30 11:24:55;;;;;;;0.50;0.50;;;22.20;99.90;;;;;;5075805;28;20063;-81
2022/10/30 11:27:27;;;;;;;0.20;0.20;;;22.00;99.90;;;;;;5093434;28;20048;-81
2022/10/30 11:30:01;;;;;;;1.05;0.20;;;22.00;99.90;;;;;;5092879;28;20047;-81
2022/10/30 11:32:29;;;;;;;0.10;0.10;;;21.90;99.90;;;;;;5093200;28;20130;-81
2022/10/30 11:35:17;;;;;;;0.20;0.10;;;21.80;99.90;;;;;;5093214;28;20044;-81
2022/10/30 11:37:45;;;;;;;0.38;0.10;;;21.90;99.90;;;;;;5093729;28;20054;-81
2022/10/30 11:40:10;;;;;;;0.45;0.45;;;21.90;99.90;;;;;;5093380;28;20117;-81
2022/10/30 11:42:42;;;;;;;0.15;0.15;;;21.90;99.90;;;;;;5076256;28;20138;-81
2022/10/30 11:45:25;;;;;;;0.00;0.00;;;21.80;99.90;;;;;;5093457;28;20044;-82
2022/10/30 11:47:52;;;;;;;0.00;0.00;;;21.90;99.90;;;;;;5093492;28;20040;-82
2022/10/30 11:50:25;;;;;;;1.65;0.38;;;21.80;99.90;;;;;;5076590;28;20492;-81
2022/10/30 11:52:56;;;;;;;0.13;0.13;;;21.90;99.90;;;;;;5076405;28;20142;-82
2022/10/30 11:55:34;;;;;;;0.00;0.00;;;22.00;99.90;;;;;;5093124;28;20042;-82
2022/10/30 11:58:00;;;;;;;0.00;0.00;;;22.00;99.90;;;;;;5095860;28;20044;-81
2022/10/30 12:00:37;;;;;;;0.00;0.00;;;22.10;99.90;;;;;;5079918;28;20047;-82
2022/10/30 12:03:02;;;;;;;0.47;0.47;;;22.40;99.90;;;;;;5097341;28;20065;-82
2022/10/30 12:05:40;;;;;;;0.10;0.10;;;22.80;99.90;;;;;;5096883;28;20412;-82
2022/10/30 12:08:05;;;;;;;0.00;0.00;;;23.10;99.90;;;;;;5079866;28;20048;-81
2022/10/30 12:10:36;;;;;;;0.10;0.10;;;23.40;99.90;;;;;;5096789;28;20042;-82
2022/10/30 12:13:05;;;;;;;0.93;0.47;;;23.30;99.90;;;;;;5079977;28;20499;-82
2022/10/30 12:15:38;;;;;;;0.08;0.08;;;23.40;99.90;;;;;;5096975;28;20040;-81
2022/10/30 12:18:07;;;;;;;0.20;0.20;;;23.50;99.90;;;;;;5096678;28;20484;-82
2022/10/30 12:20:37;;;;;;;0.05;0.00;;;23.50;99.90;;;;;;5079855;28;20055;-82
2022/10/30 12:23:11;;;;;;;0.10;0.10;;;23.30;99.90;;;;;;5079584;28;20050;-82
2022/10/30 12:25:37;;;;;;;0.45;0.15;;;23.30;99.90;;;;;;5096807;28;20044;-82
2022/10/30 12:28:04;;;;;;;0.00;0.00;;;23.20;99.90;;;;;;5096364;28;20383;-82
2022/10/30 12:30:36;;;;;;;0.10;0.10;;;23.00;99.90;;;;;;5096494;28;20509;-82
2022/10/30 12:33:30;;;;;;;0.00;0.00;;;22.70;99.90;;;;;;5080729;28;20060;-82
2022/10/30 12:36:02;;;;;;;0.30;0.10;;;22.40;99.90;;;;;;5096690;28;20055;-81
2022/10/30 12:38:32;;;;;;;0.20;0.20;;;22.10;99.90;;;;;;5080566;28;20055;-82
2022/10/30 12:41:18;;;;;;;0.30;0.17;;;21.80;99.90;;;;;;5080351;28;20062;-82
2022/10/30 12:43:58;;;;;;;0.30;0.25;;;21.60;99.90;;;;;;5079290;28;20056;-81
2022/10/30 12:46:33;;;;;;;0.15;0.15;;;21.50;99.90;;;;;;5079213;28;20048;-82
2022/10/30 12:49:06;;;;;;;0.20;0.20;;;21.40;99.90;;;;;;5079073;28;20185;-82
2022/10/30 12:51:59;;;;;;;3.20;0.40;;;21.40;99.90;;;;;;5096174;28;20120;-80
2022/10/30 12:54:42;;;;;;;2.30;0.77;;;21.40;99.90;;;;;;5095905;28;20114;-80
2022/10/30 12:57:15;;;;;;;0.13;0.13;;;21.60;99.90;;;;;;5079545;28;20047;-80
2022/10/30 12:59:50;;;;;;;0.25;0.03;;;21.60;99.90;;;;;;5096260;28;20044;-80
2022/10/30 13:02:39;;;;;;;0.00;0.00;;;21.60;99.90;;;;;;5079484;28;20048;-81